Goudeau, Louisiana
Current Conditions -  °F | °C
As of 12:55 PM on Thursday 23 Oct 2014 (Local Time) from KOPL Reporting Station
Clear Clear  
Wind Chill: 72°   Ceiling: Unl
Heat Index: 72°   Visibility: 10mi
Dew Point: 51°   Wind: 5mph
Humidity: 47%   Direction: 350°N
Pressure: 30.11"   Gusts: NA
Location:  30.9447°N, 92.1075°W
Report Text: KOPL 231755Z AUTO 35004KT 10SM CLR 22/10 A3011 RMK AO2 T02220103 10224 20086
Loading
Personal Weather Stations






























Interactive Weather Map
Tropical Storm Tracking
New forecast layout! Learn more

10-Day Weather Forecast

Advertisements
Track Severe Weather on mobile